sensor_id;sensor_type;location;lat;lon;timestamp;pressure;altitude;pressure_sealevel;temperature;humidity
46768;BME280;69007;48.978;18.066;2023-04-25T00:00:28;96539.03;;;9.83;100.00
46768;BME280;69007;48.978;18.066;2023-04-25T00:02:53;96597.28;;;10.01;100.00
46768;BME280;69007;48.978;18.066;2023-04-25T00:05:20;96600.72;;;9.83;100.00
46768;BME280;69007;48.978;18.066;2023-04-25T00:07:48;96584.97;;;9.80;100.00
46768;BME280;69007;48.978;18.066;2023-04-25T00:10:13;96590.03;;;9.91;100.00
46768;BME280;69007;48.978;18.066;2023-04-25T00:12:39;96591.44;;;9.89;100.00
46768;BME280;69007;48.978;18.066;2023-04-25T00:15:06;96556.72;;;9.51;100.00
46768;BME280;69007;48.978;18.066;2023-04-25T00:17:32;96595.84;;;9.80;100.00
46768;BME280;69007;48.978;18.066;2023-04-25T00:19:57;96586.66;;;9.75;100.00
46768;BME280;69007;48.978;18.066;2023-04-25T00:22:23;96581.84;;;9.67;100.00
46768;BME280;69007;48.978;18.066;2023-04-25T00:24:49;96551.25;;;9.56;100.00
46768;BME280;69007;48.978;18.066;2023-04-25T00:27:14;96588.66;;;9.94;100.00
46768;BME280;69007;48.978;18.066;2023-04-25T00:29:39;96614.13;;;9.74;100.00
46768;BME280;69007;48.978;18.066;2023-04-25T00:32:05;96597.47;;;9.81;100.00
46768;BME280;69007;48.978;18.066;2023-04-25T00:34:30;96587.53;;;9.71;100.00
46768;BME280;69007;48.978;18.066;2023-04-25T00:36:55;96609.59;;;9.93;100.00
46768;BME280;69007;48.978;18.066;2023-04-25T00:39:22;96604.00;;;9.80;100.00
46768;BME280;69007;48.978;18.066;2023-04-25T00:41:47;96588.88;;;9.68;100.00
46768;BME280;69007;48.978;18.066;2023-04-25T00:44:15;96573.06;;;9.46;100.00
46768;BME280;69007;48.978;18.066;2023-04-25T00:46:42;96593.38;;;9.54;100.00
46768;BME280;69007;48.978;18.066;2023-04-25T00:49:07;96601.00;;;9.81;100.00
46768;BME280;69007;48.978;18.066;2023-04-25T00:51:33;96598.19;;;9.62;100.00
46768;BME280;69007;48.978;18.066;2023-04-25T00:53:59;96563.09;;;9.36;100.00
46768;BME280;69007;48.978;18.066;2023-04-25T00:56:25;96618.69;;;9.78;100.00
46768;BME280;69007;48.978;18.066;2023-04-25T00:58:53;96608.16;;;9.72;100.00
46768;BME280;69007;48.978;18.066;2023-04-25T01:01:20;96617.88;;;9.44;100.00
46768;BME280;69007;48.978;18.066;2023-04-25T01:03:46;96599.88;;;9.53;100.00
46768;BME280;69007;48.978;18.066;2023-04-25T01:06:12;96582.66;;;9.33;100.00
46768;BME280;69007;48.978;18.066;2023-04-25T01:08:38;96588.00;;;9.49;100.00
46768;BME280;69007;48.978;18.066;2023-04-25T01:11:04;96629.53;;;9.84;100.00
46768;BME280;69007;48.978;18.066;2023-04-25T01:13:30;96591.97;;;9.56;100.00
46768;BME280;69007;48.978;18.066;2023-04-25T01:15:57;96606.41;;;9.52;100.00
46768;BME280;69007;48.978;18.066;2023-04-25T01:18:23;96614.78;;;9.61;100.00
46768;BME280;69007;48.978;18.066;2023-04-25T01:20:51;96570.66;;;9.39;100.00
46768;BME280;69007;48.978;18.066;2023-04-25T01:23:17;96615.38;;;9.52;100.00
46768;BME280;69007;48.978;18.066;2023-04-25T01:25:43;96608.41;;;9.41;100.00
46768;BME280;69007;48.978;18.066;2023-04-25T01:28:09;96613.41;;;9.58;100.00
46768;BME280;69007;48.978;18.066;2023-04-25T01:30:34;96581.53;;;9.39;100.00
46768;BME280;69007;48.978;18.066;2023-04-25T01:33:01;96571.72;;;9.09;100.00
46768;BME280;69007;48.978;18.066;2023-04-25T01:35:26;96615.75;;;9.35;100.00
46768;BME280;69007;48.978;18.066;2023-04-25T01:37:53;96612.53;;;9.33;100.00
46768;BME280;69007;48.978;18.066;2023-04-25T01:40:20;96602.50;;;9.29;100.00
46768;BME280;69007;48.978;18.066;2023-04-25T01:42:46;96588.25;;;9.13;100.00
46768;BME280;69007;48.978;18.066;2023-04-25T01:45:11;96613.41;;;9.23;100.00
46768;BME280;69007;48.978;18.066;2023-04-25T01:47:38;96609.88;;;9.23;100.00
46768;BME280;69007;48.978;18.066;2023-04-25T01:50:06;96604.06;;;9.40;100.00
46768;BME280;69007;48.978;18.066;2023-04-25T01:52:32;96613.34;;;9.34;100.00
46768;BME280;69007;48.978;18.066;2023-04-25T01:54:59;96606.84;;;9.30;100.00
46768;BME280;69007;48.978;18.066;2023-04-25T01:57:25;96567.88;;;9.10;100.00
46768;BME280;69007;48.978;18.066;2023-04-25T01:59:51;96593.09;;;9.16;100.00
46768;BME280;69007;48.978;18.066;2023-04-25T02:02:16;96566.41;;;8.89;100.00
46768;BME280;69007;48.978;18.066;2023-04-25T02:04:42;96562.63;;;8.84;100.00
46768;BME280;69007;48.978;18.066;2023-04-25T02:07:07;96566.59;;;9.02;100.00
46768;BME280;69007;48.978;18.066;2023-04-25T02:09:32;96593.75;;;9.02;100.00
46768;BME280;69007;48.978;18.066;2023-04-25T02:11:58;96606.75;;;9.00;100.00
46768;BME280;69007;48.978;18.066;2023-04-25T02:14:23;96615.44;;;9.02;100.00
46768;BME280;69007;48.978;18.066;2023-04-25T02:16:48;96576.38;;;8.98;100.00
46768;BME280;69007;48.978;18.066;2023-04-25T02:19:14;96614.00;;;9.15;100.00
46768;BME280;69007;48.978;18.066;2023-04-25T02:21:39;96560.75;;;8.80;100.00
46768;BME280;69007;48.978;18.066;2023-04-25T02:24:05;96594.53;;;9.03;100.00
46768;BME280;69007;48.978;18.066;2023-04-25T02:26:31;96602.97;;;9.01;100.00
46768;BME280;69007;48.978;18.066;2023-04-25T02:28:57;96561.13;;;8.63;100.00
46768;BME280;69007;48.978;18.066;2023-04-25T02:31:22;96591.94;;;8.88;100.00
46768;BME280;69007;48.978;18.066;2023-04-25T02:33:48;96603.03;;;8.91;100.00
46768;BME280;69007;48.978;18.066;2023-04-25T02:36:13;96569.22;;;8.73;100.00
46768;BME280;69007;48.978;18.066;2023-04-25T02:38:39;96557.00;;;8.71;100.00
46768;BME280;69007;48.978;18.066;2023-04-25T02:41:04;96578.78;;;9.05;100.00
46768;BME280;69007;48.978;18.066;2023-04-25T02:43:30;96586.41;;;9.03;100.00
46768;BME280;69007;48.978;18.066;2023-04-25T02:45:55;96580.31;;;8.77;100.00
46768;BME280;69007;48.978;18.066;2023-04-25T02:48:21;96590.56;;;8.85;100.00
46768;BME280;69007;48.978;18.066;2023-04-25T02:50:46;96582.19;;;8.81;100.00
46768;BME280;69007;48.978;18.066;2023-04-25T02:53:11;96592.78;;;8.73;100.00
46768;BME280;69007;48.978;18.066;2023-04-25T02:55:37;96593.81;;;8.87;100.00
46768;BME280;69007;48.978;18.066;2023-04-25T02:58:02;96585.16;;;8.85;100.00
46768;BME280;69007;48.978;18.066;2023-04-25T03:00:28;96592.19;;;8.91;100.00
46768;BME280;69007;48.978;18.066;2023-04-25T03:02:54;96589.13;;;9.03;100.00
46768;BME280;69007;48.978;18.066;2023-04-25T03:05:20;96595.94;;;8.95;100.00
46768;BME280;69007;48.978;18.066;2023-04-25T03:07:45;96537.84;;;8.57;100.00
46768;BME280;69007;48.978;18.066;2023-04-25T03:10:11;96581.09;;;8.77;100.00
46768;BME280;69007;48.978;18.066;2023-04-25T03:12:36;96555.50;;;8.49;100.00
46768;BME280;69007;48.978;18.066;2023-04-25T03:15:02;96559.81;;;8.55;100.00
46768;BME280;69007;48.978;18.066;2023-04-25T03:17:28;96590.06;;;8.78;100.00
46768;BME280;69007;48.978;18.066;2023-04-25T03:19:54;96591.72;;;8.74;100.00
46768;BME280;69007;48.978;18.066;2023-04-25T03:22:19;96554.22;;;8.81;100.00
46768;BME280;69007;48.978;18.066;2023-04-25T03:24:44;96558.09;;;8.75;100.00
46768;BME280;69007;48.978;18.066;2023-04-25T03:27:10;96580.81;;;8.84;100.00
46768;BME280;69007;48.978;18.066;2023-04-25T03:29:35;96553.31;;;8.51;100.00
46768;BME280;69007;48.978;18.066;2023-04-25T03:32:00;96577.41;;;8.63;100.00
46768;BME280;69007;48.978;18.066;2023-04-25T03:34:26;96554.56;;;8.69;100.00
46768;BME280;69007;48.978;18.066;2023-04-25T03:36:51;96595.44;;;8.88;100.00
46768;BME280;69007;48.978;18.066;2023-04-25T03:39:17;96569.44;;;8.82;100.00
46768;BME280;69007;48.978;18.066;2023-04-25T03:41:42;96568.34;;;8.83;100.00
46768;BME280;69007;48.978;18.066;2023-04-25T03:44:07;96555.09;;;8.76;100.00
46768;BME280;69007;48.978;18.066;2023-04-25T03:46:33;96596.50;;;8.92;100.00
46768;BME280;69007;48.978;18.066;2023-04-25T03:48:58;96551.63;;;8.65;100.00
46768;BME280;69007;48.978;18.066;2023-04-25T03:51:24;96581.44;;;8.65;100.00
46768;BME280;69007;48.978;18.066;2023-04-25T03:53:51;96530.91;;;8.30;100.00
46768;BME280;69007;48.978;18.066;2023-04-25T03:56:16;96584.97;;;8.61;100.00
46768;BME280;69007;48.978;18.066;2023-04-25T03:58:41;96577.66;;;8.66;100.00
46768;BME280;69007;48.978;18.066;2023-04-25T04:01:06;96593.84;;;8.82;100.00
46768;BME280;69007;48.978;18.066;2023-04-25T04:03:36;96597.16;;;8.69;100.00
46768;BME280;69007;48.978;18.066;2023-04-25T04:06:03;96609.78;;;8.94;100.00
46768;BME280;69007;48.978;18.066;2023-04-25T04:08:29;96603.13;;;8.65;100.00
46768;BME280;69007;48.978;18.066;2023-04-25T04:10:54;96605.59;;;8.62;100.00
46768;BME280;69007;48.978;18.066;2023-04-25T04:13:20;96577.09;;;8.64;100.00
46768;BME280;69007;48.978;18.066;2023-04-25T04:15:45;96580.69;;;8.49;100.00
46768;BME280;69007;48.978;18.066;2023-04-25T04:18:10;96554.44;;;8.45;100.00
46768;BME280;69007;48.978;18.066;2023-04-25T04:20:36;96585.78;;;8.66;100.00
46768;BME280;69007;48.978;18.066;2023-04-25T04:23:01;96607.13;;;8.83;100.00
46768;BME280;69007;48.978;18.066;2023-04-25T04:25:26;96600.59;;;8.90;100.00
46768;BME280;69007;48.978;18.066;2023-04-25T04:27:52;96604.28;;;9.04;100.00
46768;BME280;69007;48.978;18.066;2023-04-25T04:30:21;96594.91;;;8.81;100.00
46768;BME280;69007;48.978;18.066;2023-04-25T04:32:49;96608.97;;;8.93;100.00
46768;BME280;69007;48.978;18.066;2023-04-25T04:35:14;96582.50;;;8.75;100.00
46768;BME280;69007;48.978;18.066;2023-04-25T04:37:39;96609.50;;;8.95;100.00
46768;BME280;69007;48.978;18.066;2023-04-25T04:40:05;96625.38;;;8.67;100.00
46768;BME280;69007;48.978;18.066;2023-04-25T04:42:32;96608.47;;;8.81;100.00
46768;BME280;69007;48.978;18.066;2023-04-25T04:44:57;96622.56;;;8.88;100.00
46768;BME280;69007;48.978;18.066;2023-04-25T04:47:23;96618.31;;;8.72;100.00
46768;BME280;69007;48.978;18.066;2023-04-25T04:49:49;96559.56;;;8.36;100.00
46768;BME280;69007;48.978;18.066;2023-04-25T04:52:15;96561.75;;;8.34;100.00
46768;BME280;69007;48.978;18.066;2023-04-25T04:54:40;96632.19;;;8.60;100.00
46768;BME280;69007;48.978;18.066;2023-04-25T04:57:05;96602.66;;;8.38;100.00
46768;BME280;69007;48.978;18.066;2023-04-25T04:59:31;96637.91;;;8.53;100.00
46768;BME280;69007;48.978;18.066;2023-04-25T05:01:56;96594.78;;;8.41;100.00
46768;BME280;69007;48.978;18.066;2023-04-25T05:04:21;96623.47;;;8.68;100.00
46768;BME280;69007;48.978;18.066;2023-04-25T05:06:47;96651.22;;;8.34;100.00
46768;BME280;69007;48.978;18.066;2023-04-25T05:09:12;96636.28;;;8.52;100.00
46768;BME280;69007;48.978;18.066;2023-04-25T05:11:37;96599.22;;;8.17;100.00
46768;BME280;69007;48.978;18.066;2023-04-25T05:14:03;96644.69;;;8.51;100.00
46768;BME280;69007;48.978;18.066;2023-04-25T05:16:28;96629.81;;;8.48;100.00
46768;BME280;69007;48.978;18.066;2023-04-25T05:18:53;96604.94;;;8.15;100.00
46768;BME280;69007;48.978;18.066;2023-04-25T05:21:19;96635.78;;;8.45;100.00
46768;BME280;69007;48.978;18.066;2023-04-25T05:23:44;96616.44;;;8.62;100.00
46768;BME280;69007;48.978;18.066;2023-04-25T05:26:09;96643.53;;;8.72;100.00
46768;BME280;69007;48.978;18.066;2023-04-25T05:28:40;96662.78;;;8.71;100.00
46768;BME280;69007;48.978;18.066;2023-04-25T05:31:06;96612.44;;;8.39;100.00
46768;BME280;69007;48.978;18.066;2023-04-25T05:33:32;96616.47;;;8.57;100.00
46768;BME280;69007;48.978;18.066;2023-04-25T05:35:57;96622.22;;;8.40;100.00
46768;BME280;69007;48.978;18.066;2023-04-25T05:38:22;96644.97;;;8.44;100.00
46768;BME280;69007;48.978;18.066;2023-04-25T05:40:48;96627.31;;;8.41;100.00
46768;BME280;69007;48.978;18.066;2023-04-25T05:43:13;96634.97;;;8.24;100.00
46768;BME280;69007;48.978;18.066;2023-04-25T05:45:38;96633.34;;;8.18;100.00
46768;BME280;69007;48.978;18.066;2023-04-25T05:48:04;96638.44;;;8.55;100.00
46768;BME280;69007;48.978;18.066;2023-04-25T05:50:29;96635.47;;;8.52;100.00
46768;BME280;69007;48.978;18.066;2023-04-25T05:52:55;96623.28;;;8.44;100.00
46768;BME280;69007;48.978;18.066;2023-04-25T05:55:20;96621.97;;;8.26;100.00
46768;BME280;69007;48.978;18.066;2023-04-25T05:57:45;96660.16;;;8.45;100.00
46768;BME280;69007;48.978;18.066;2023-04-25T06:00:14;96632.50;;;8.43;100.00
46768;BME280;69007;48.978;18.066;2023-04-25T06:02:41;96657.69;;;8.54;100.00
46768;BME280;69007;48.978;18.066;2023-04-25T06:05:07;96652.03;;;8.40;100.00
46768;BME280;69007;48.978;18.066;2023-04-25T06:07:32;96655.03;;;8.43;100.00
46768;BME280;69007;48.978;18.066;2023-04-25T06:09:58;96649.31;;;8.35;100.00
46768;BME280;69007;48.978;18.066;2023-04-25T06:12:24;96640.09;;;8.46;100.00
46768;BME280;69007;48.978;18.066;2023-04-25T06:14:50;96665.00;;;8.63;100.00
46768;BME280;69007;48.978;18.066;2023-04-25T06:17:15;96652.41;;;8.88;100.00
46768;BME280;69007;48.978;18.066;2023-04-25T06:19:40;96629.81;;;8.48;100.00
46768;BME280;69007;48.978;18.066;2023-04-25T06:22:07;96627.63;;;8.50;100.00
46768;BME280;69007;48.978;18.066;2023-04-25T06:24:33;96659.19;;;8.85;100.00
46768;BME280;69007;48.978;18.066;2023-04-25T06:26:59;96655.69;;;8.85;100.00
46768;BME280;69007;48.978;18.066;2023-04-25T06:29:25;96647.63;;;8.59;100.00
46768;BME280;69007;48.978;18.066;2023-04-25T06:31:51;96658.56;;;9.04;100.00
46768;BME280;69007;48.978;18.066;2023-04-25T06:34:16;96674.00;;;9.09;100.00
46768;BME280;69007;48.978;18.066;2023-04-25T06:36:42;96627.22;;;8.77;100.00
46768;BME280;69007;48.978;18.066;2023-04-25T06:39:09;96672.69;;;9.06;100.00
46768;BME280;69007;48.978;18.066;2023-04-25T06:41:34;96657.13;;;9.17;100.00
46768;BME280;69007;48.978;18.066;2023-04-25T06:44:00;96647.41;;;9.55;100.00
46768;BME280;69007;48.978;18.066;2023-04-25T06:46:26;96636.22;;;9.22;100.00
46768;BME280;69007;48.978;18.066;2023-04-25T06:48:51;96662.56;;;9.62;100.00
46768;BME280;69007;48.978;18.066;2023-04-25T06:51:16;96654.91;;;9.69;100.00
46768;BME280;69007;48.978;18.066;2023-04-25T06:53:42;96689.06;;;10.09;100.00
46768;BME280;69007;48.978;18.066;2023-04-25T06:56:08;96672.84;;;9.99;100.00
46768;BME280;69007;48.978;18.066;2023-04-25T06:58:33;96634.78;;;9.30;100.00
46768;BME280;69007;48.978;18.066;2023-04-25T07:00:58;96665.59;;;9.55;100.00
46768;BME280;69007;48.978;18.066;2023-04-25T07:03:24;96673.72;;;9.55;100.00
46768;BME280;69007;48.978;18.066;2023-04-25T07:05:50;96674.88;;;9.83;100.00
46768;BME280;69007;48.978;18.066;2023-04-25T07:08:15;96676.44;;;9.94;100.00
46768;BME280;69007;48.978;18.066;2023-04-25T07:10:41;96665.19;;;9.37;100.00
46768;BME280;69007;48.978;18.066;2023-04-25T07:13:06;96681.81;;;10.00;100.00
46768;BME280;69007;48.978;18.066;2023-04-25T07:15:32;96673.47;;;9.91;100.00
46768;BME280;69007;48.978;18.066;2023-04-25T07:17:57;96680.22;;;10.28;100.00
46768;BME280;69007;48.978;18.066;2023-04-25T07:20:22;96669.44;;;10.18;100.00
46768;BME280;69007;48.978;18.066;2023-04-25T07:22:48;96696.56;;;9.93;100.00
46768;BME280;69007;48.978;18.066;2023-04-25T07:25:13;96670.13;;;9.65;100.00
46768;BME280;69007;48.978;18.066;2023-04-25T07:27:38;96668.75;;;9.28;100.00
46768;BME280;69007;48.978;18.066;2023-04-25T07:30:05;96672.66;;;9.56;100.00
46768;BME280;69007;48.978;18.066;2023-04-25T07:32:30;96680.25;;;9.14;100.00
46768;BME280;69007;48.978;18.066;2023-04-25T07:34:55;96664.75;;;9.15;100.00
46768;BME280;69007;48.978;18.066;2023-04-25T07:37:21;96674.84;;;9.09;100.00
46768;BME280;69007;48.978;18.066;2023-04-25T07:39:46;96659.72;;;9.43;100.00
46768;BME280;69007;48.978;18.066;2023-04-25T07:42:12;96664.16;;;8.73;100.00
46768;BME280;69007;48.978;18.066;2023-04-25T07:44:38;96665.66;;;9.00;100.00
46768;BME280;69007;48.978;18.066;2023-04-25T07:47:06;96611.16;;;8.91;100.00
46768;BME280;69007;48.978;18.066;2023-04-25T07:49:35;96665.63;;;9.05;100.00
46768;BME280;69007;48.978;18.066;2023-04-25T07:52:00;96649.56;;;9.19;100.00
46768;BME280;69007;48.978;18.066;2023-04-25T07:54:26;96663.66;;;9.21;100.00
46768;BME280;69007;48.978;18.066;2023-04-25T07:56:51;96648.66;;;9.34;100.00
46768;BME280;69007;48.978;18.066;2023-04-25T07:59:17;96617.50;;;9.21;100.00
46768;BME280;69007;48.978;18.066;2023-04-25T08:01:42;96649.25;;;9.65;100.00
46768;BME280;69007;48.978;18.066;2023-04-25T08:04:07;96644.41;;;9.57;100.00
46768;BME280;69007;48.978;18.066;2023-04-25T08:06:33;96641.53;;;9.77;100.00
46768;BME280;69007;48.978;18.066;2023-04-25T08:08:58;96645.22;;;9.92;100.00
46768;BME280;69007;48.978;18.066;2023-04-25T08:11:23;96653.31;;;9.97;100.00
46768;BME280;69007;48.978;18.066;2023-04-25T08:13:49;96649.19;;;10.05;100.00
46768;BME280;69007;48.978;18.066;2023-04-25T08:16:14;96657.56;;;10.08;100.00
46768;BME280;69007;48.978;18.066;2023-04-25T08:18:39;96620.19;;;9.95;100.00
46768;BME280;69007;48.978;18.066;2023-04-25T08:21:05;96668.06;;;10.20;100.00
46768;BME280;69007;48.978;18.066;2023-04-25T08:23:31;96644.44;;;9.86;100.00
46768;BME280;69007;48.978;18.066;2023-04-25T08:25:57;96664.66;;;10.04;100.00
46768;BME280;69007;48.978;18.066;2023-04-25T08:28:22;96658.25;;;9.90;100.00
46768;BME280;69007;48.978;18.066;2023-04-25T08:30:47;96648.22;;;10.20;100.00
46768;BME280;69007;48.978;18.066;2023-04-25T08:33:13;96647.47;;;10.43;100.00
46768;BME280;69007;48.978;18.066;2023-04-25T08:35:38;96636.53;;;10.19;100.00
46768;BME280;69007;48.978;18.066;2023-04-25T08:38:03;96632.72;;;10.49;100.00
46768;BME280;69007;48.978;18.066;2023-04-25T08:40:31;96612.38;;;10.42;100.00
46768;BME280;69007;48.978;18.066;2023-04-25T08:43:01;96625.59;;;10.54;100.00
46768;BME280;69007;48.978;18.066;2023-04-25T08:45:31;96602.66;;;10.60;100.00
46768;BME280;69007;48.978;18.066;2023-04-25T08:47:57;96649.22;;;10.77;100.00
46768;BME280;69007;48.978;18.066;2023-04-25T08:50:22;96646.13;;;10.65;100.00
46768;BME280;69007;48.978;18.066;2023-04-25T08:52:49;96645.47;;;10.49;100.00
46768;BME280;69007;48.978;18.066;2023-04-25T08:55:18;96659.66;;;10.70;100.00
46768;BME280;69007;48.978;18.066;2023-04-25T08:57:44;96635.53;;;10.63;100.00
46768;BME280;69007;48.978;18.066;2023-04-25T09:00:11;96662.81;;;10.82;100.00
46768;BME280;69007;48.978;18.066;2023-04-25T09:02:38;96661.03;;;10.92;100.00
46768;BME280;69007;48.978;18.066;2023-04-25T09:05:05;96667.03;;;11.32;100.00
46768;BME280;69007;48.978;18.066;2023-04-25T09:07:32;96661.31;;;11.14;100.00
46768;BME280;69007;48.978;18.066;2023-04-25T09:09:58;96668.38;;;11.34;100.00
46768;BME280;69007;48.978;18.066;2023-04-25T09:12:27;96638.53;;;11.05;100.00
46768;BME280;69007;48.978;18.066;2023-04-25T09:17:30;96676.56;;;11.34;100.00
46768;BME280;69007;48.978;18.066;2023-04-25T09:20:09;96665.78;;;11.05;100.00
46768;BME280;69007;48.978;18.066;2023-04-25T09:22:36;96631.66;;;10.45;100.00
46768;BME280;69007;48.978;18.066;2023-04-25T09:25:03;96662.84;;;10.77;100.00
46768;BME280;69007;48.978;18.066;2023-04-25T09:27:29;96642.75;;;11.16;100.00
46768;BME280;69007;48.978;18.066;2023-04-25T09:29:58;96681.63;;;11.22;100.00
46768;BME280;69007;48.978;18.066;2023-04-25T09:32:27;96671.03;;;11.39;100.00
46768;BME280;69007;48.978;18.066;2023-04-25T09:34:54;96663.97;;;11.38;100.00
46768;BME280;69007;48.978;18.066;2023-04-25T09:37:25;96648.50;;;11.34;100.00
46768;BME280;69007;48.978;18.066;2023-04-25T09:39:56;96643.41;;;11.08;100.00
46768;BME280;69007;48.978;18.066;2023-04-25T09:42:23;96673.19;;;11.61;100.00
46768;BME280;69007;48.978;18.066;2023-04-25T09:44:51;96633.38;;;10.84;100.00
46768;BME280;69007;48.978;18.066;2023-04-25T09:47:17;96686.44;;;11.30;100.00
46768;BME280;69007;48.978;18.066;2023-04-25T09:49:43;96670.59;;;11.32;100.00
46768;BME280;69007;48.978;18.066;2023-04-25T09:52:13;96667.13;;;11.65;100.00
46768;BME280;69007;48.978;18.066;2023-04-25T09:54:39;96653.66;;;11.35;100.00
46768;BME280;69007;48.978;18.066;2023-04-25T09:57:32;96663.91;;;11.43;100.00
46768;BME280;69007;48.978;18.066;2023-04-25T10:00:00;96659.13;;;11.87;100.00
46768;BME280;69007;48.978;18.066;2023-04-25T10:02:26;96650.72;;;11.70;100.00
46768;BME280;69007;48.978;18.066;2023-04-25T10:04:54;96655.09;;;12.04;100.00
46768;BME280;69007;48.978;18.066;2023-04-25T10:07:26;96650.72;;;12.03;100.00
46768;BME280;69007;48.978;18.066;2023-04-25T10:10:03;96621.75;;;11.55;100.00
46768;BME280;69007;48.978;18.066;2023-04-25T10:12:30;96645.31;;;11.65;100.00
46768;BME280;69007;48.978;18.066;2023-04-25T10:14:58;96664.00;;;11.90;100.00
46768;BME280;69007;48.978;18.066;2023-04-25T10:17:26;96651.06;;;12.01;100.00
46768;BME280;69007;48.978;18.066;2023-04-25T10:19:54;96650.25;;;11.62;100.00
46768;BME280;69007;48.978;18.066;2023-04-25T10:22:37;96650.09;;;10.97;100.00
46768;BME280;69007;48.978;18.066;2023-04-25T10:25:03;96664.19;;;10.80;100.00
46768;BME280;69007;48.978;18.066;2023-04-25T10:27:30;96638.00;;;11.27;100.00
46768;BME280;69007;48.978;18.066;2023-04-25T10:30:03;96644.31;;;11.41;100.00
46768;BME280;69007;48.978;18.066;2023-04-25T10:32:31;96649.72;;;11.79;100.00
46768;BME280;69007;48.978;18.066;2023-04-25T10:34:57;96621.09;;;11.63;100.00
46768;BME280;69007;48.978;18.066;2023-04-25T10:37:24;96659.13;;;11.87;100.00
46768;BME280;69007;48.978;18.066;2023-04-25T10:39:49;96646.50;;;11.96;100.00
46768;BME280;69007;48.978;18.066;2023-04-25T10:42:14;96652.41;;;11.47;100.00
46768;BME280;69007;48.978;18.066;2023-04-25T10:44:40;96645.50;;;11.87;100.00
46768;BME280;69007;48.978;18.066;2023-04-25T10:47:07;96644.53;;;12.16;100.00
46768;BME280;69007;48.978;18.066;2023-04-25T10:49:33;96647.16;;;12.21;100.00
46768;BME280;69007;48.978;18.066;2023-04-25T10:52:19;96630.69;;;13.09;100.00
46768;BME280;69007;48.978;18.066;2023-04-25T10:57:31;96641.53;;;12.87;100.00
46768;BME280;69007;48.978;18.066;2023-04-25T11:00:20;96615.47;;;12.81;100.00
46768;BME280;69007;48.978;18.066;2023-04-25T11:02:51;96614.81;;;12.14;100.00
46768;BME280;69007;48.978;18.066;2023-04-25T11:05:22;96611.09;;;12.24;100.00
46768;BME280;69007;48.978;18.066;2023-04-25T11:07:52;96631.84;;;12.81;100.00
46768;BME280;69007;48.978;18.066;2023-04-25T11:10:19;96625.31;;;13.18;100.00
46768;BME280;69007;48.978;18.066;2023-04-25T11:12:45;96602.09;;;12.79;100.00
46768;BME280;69007;48.978;18.066;2023-04-25T11:15:11;96631.75;;;13.36;100.00
46768;BME280;69007;48.978;18.066;2023-04-25T11:17:37;96603.28;;;13.01;100.00
46768;BME280;69007;48.978;18.066;2023-04-25T11:20:04;96634.59;;;13.68;100.00
46768;BME280;69007;48.978;18.066;2023-04-25T11:22:37;96630.28;;;13.53;100.00
46768;BME280;69007;48.978;18.066;2023-04-25T11:25:07;96630.19;;;13.80;100.00
46768;BME280;69007;48.978;18.066;2023-04-25T11:27:33;96624.34;;;13.51;96.15
46768;BME280;69007;48.978;18.066;2023-04-25T11:29:58;96619.88;;;13.77;99.79
46768;BME280;69007;48.978;18.066;2023-04-25T11:32:23;96627.41;;;13.94;100.00
46768;BME280;69007;48.978;18.066;2023-04-25T11:34:49;96639.56;;;13.88;100.00
46768;BME280;69007;48.978;18.066;2023-04-25T11:37:14;96623.25;;;13.74;99.39
46768;BME280;69007;48.978;18.066;2023-04-25T11:39:44;96577.13;;;13.81;98.21
46768;BME280;69007;48.978;18.066;2023-04-25T11:42:11;96614.50;;;14.17;96.22
46768;BME280;69007;48.978;18.066;2023-04-25T11:44:38;96605.84;;;13.70;95.32
46768;BME280;69007;48.978;18.066;2023-04-25T11:47:04;96577.25;;;13.54;100.00
46768;BME280;69007;48.978;18.066;2023-04-25T11:49:31;96604.19;;;13.10;100.00
46768;BME280;69007;48.978;18.066;2023-04-25T11:51:57;96608.06;;;13.45;98.73
46768;BME280;69007;48.978;18.066;2023-04-25T11:54:22;96602.25;;;13.11;99.34
46768;BME280;69007;48.978;18.066;2023-04-25T11:56:48;96601.53;;;13.19;100.00
46768;BME280;69007;48.978;18.066;2023-04-25T11:59:13;96612.41;;;13.47;93.47
46768;BME280;69007;48.978;18.066;2023-04-25T12:01:41;96575.75;;;13.11;94.52
46768;BME280;69007;48.978;18.066;2023-04-25T12:04:12;96613.97;;;13.25;100.00
46768;BME280;69007;48.978;18.066;2023-04-25T12:06:39;96609.69;;;12.68;100.00
46768;BME280;69007;48.978;18.066;2023-04-25T12:09:08;96583.81;;;13.53;100.00
46768;BME280;69007;48.978;18.066;2023-04-25T12:11:41;96603.16;;;13.56;100.00
46768;BME280;69007;48.978;18.066;2023-04-25T12:14:08;96589.31;;;13.75;100.00
46768;BME280;69007;48.978;18.066;2023-04-25T12:16:43;96596.75;;;13.38;100.00
46768;BME280;69007;48.978;18.066;2023-04-25T12:19:09;96591.88;;;12.85;100.00
46768;BME280;69007;48.978;18.066;2023-04-25T12:21:35;96591.47;;;13.28;100.00
46768;BME280;69007;48.978;18.066;2023-04-25T12:24:13;96598.66;;;12.87;100.00
46768;BME280;69007;48.978;18.066;2023-04-25T12:29:19;96563.72;;;12.48;100.00
46768;BME280;69007;48.978;18.066;2023-04-25T12:31:45;96599.69;;;12.78;100.00
46768;BME280;69007;48.978;18.066;2023-04-25T12:34:11;96599.91;;;12.67;100.00
46768;BME280;69007;48.978;18.066;2023-04-25T12:36:37;96564.44;;;12.40;100.00
46768;BME280;69007;48.978;18.066;2023-04-25T12:39:02;96594.81;;;12.75;100.00
46768;BME280;69007;48.978;18.066;2023-04-25T12:41:29;96567.53;;;12.75;100.00
46768;BME280;69007;48.978;18.066;2023-04-25T12:43:55;96577.25;;;12.25;100.00
46768;BME280;69007;48.978;18.066;2023-04-25T12:46:20;96567.56;;;12.47;100.00
46768;BME280;69007;48.978;18.066;2023-04-25T12:48:46;96542.28;;;12.00;100.00
46768;BME280;69007;48.978;18.066;2023-04-25T12:51:11;96565.44;;;12.44;100.00